createdAt,value
2022-09-27T00:01:34.124Z,98951.22
2022-09-27T00:04:01.734Z,98951.47
2022-09-27T00:06:31.242Z,98945.16
2022-09-27T00:08:58.732Z,98938.00
2022-09-27T00:11:35.232Z,98926.38
2022-09-27T00:14:02.522Z,98924.16
2022-09-27T00:16:31.163Z,98922.59
2022-09-27T00:19:02.146Z,98915.84
2022-09-27T00:21:30.680Z,98909.59
2022-09-27T00:23:58.092Z,98915.81
2022-09-27T00:26:25.494Z,98916.91
2022-09-27T00:28:52.296Z,98914.06
2022-09-27T00:31:29.465Z,98914.00
2022-09-27T00:33:58.181Z,98912.72
2022-09-27T00:36:26.565Z,98900.16
2022-09-27T00:38:53.520Z,98903.94
2022-09-27T00:41:32.213Z,98898.47
2022-09-27T00:44:18.918Z,98893.72
2022-09-27T00:46:49.120Z,98891.22
2022-09-27T00:49:23.342Z,98894.03
2022-09-27T00:51:52.483Z,98888.66
2022-09-27T00:54:19.865Z,98885.00
2022-09-27T00:56:46.834Z,98882.44
2022-09-27T00:59:48.842Z,98882.59
2022-09-27T01:02:15.712Z,98874.75
2022-09-27T01:04:42.915Z,98873.53
2022-09-27T01:07:09.586Z,98864.03
2022-09-27T01:09:36.175Z,98870.16
2022-09-27T01:12:23.589Z,98863.19
2022-09-27T01:15:05.539Z,98864.03
2022-09-27T01:18:09.134Z,98862.50
2022-09-27T01:20:45.310Z,98859.75
2022-09-27T01:23:39.431Z,98856.34
2022-09-27T01:26:22.691Z,98858.81
2022-09-27T01:29:06.027Z,98856.56
2022-09-27T01:32:14.717Z,98853.00
2022-09-27T01:34:45.357Z,98849.50
2022-09-27T01:37:24.179Z,98844.69
2022-09-27T01:40:04.485Z,98847.53
2022-09-27T01:42:50.883Z,98847.78
2022-09-27T01:45:26.687Z,98830.69
2022-09-27T01:47:56.846Z,98835.28
2022-09-27T01:50:34.264Z,98829.00
2022-09-27T01:53:07.122Z,98830.63
2022-09-27T01:55:37.661Z,98818.94
2022-09-27T01:58:14.046Z,98816.38
2022-09-27T02:00:42.762Z,98812.69
2022-09-27T02:03:14.746Z,98817.78
2022-09-27T02:05:45.776Z,98814.09
2022-09-27T02:08:41.861Z,98812.44
2022-09-27T02:11:12.435Z,98801.78
2022-09-27T02:13:44.327Z,98793.25
2022-09-27T02:16:20.057Z,98790.16
2022-09-27T02:19:09.228Z,98792.00
2022-09-27T02:21:41.936Z,98796.19
2022-09-27T02:24:12.401Z,98787.13
2022-09-27T02:26:44.632Z,98792.78
2022-09-27T02:29:23.460Z,98783.84
2022-09-27T02:31:50.112Z,98781.84
2022-09-27T02:34:20.386Z,98778.34
2022-09-27T02:36:48.486Z,98782.91
2022-09-27T02:39:15.633Z,98773.38
2022-09-27T02:41:42.336Z,98768.00
2022-09-27T02:44:11.360Z,98764.59
2022-09-27T02:46:53.854Z,98760.84
2022-09-27T02:49:35.672Z,98758.84
2022-09-27T02:52:56.242Z,98757.97
2022-09-27T02:55:41.401Z,98754.88
2022-09-27T02:58:17.626Z,98746.69
2022-09-27T03:01:06.157Z,98749.50
2022-09-27T03:03:46.215Z,98743.78
2022-09-27T03:06:14.789Z,98746.38
2022-09-27T03:08:41.967Z,98742.22
2022-09-27T03:11:08.609Z,98740.25
2022-09-27T03:13:50.203Z,98744.38
2022-09-27T03:16:25.435Z,98739.41
2022-09-27T03:18:52.054Z,98737.31
2022-09-27T03:21:18.663Z,98732.31
2022-09-27T03:23:45.292Z,98733.50
2022-09-27T03:26:13.178Z,98726.34
2022-09-27T03:28:40.007Z,98727.59
2022-09-27T03:31:06.813Z,98725.78
2022-09-27T03:33:33.635Z,98713.63
2022-09-27T03:36:00.412Z,98715.16
2022-09-27T03:38:27.001Z,98714.38
2022-09-27T03:40:53.823Z,98712.75
2022-09-27T03:43:20.488Z,98710.81
2022-09-27T03:45:47.689Z,98711.66
2022-09-27T03:48:14.442Z,98710.03
2022-09-27T03:50:41.133Z,98708.34
2022-09-27T03:53:07.935Z,98696.75
2022-09-27T03:55:35.387Z,98702.28
2022-09-27T03:58:02.196Z,98702.47
2022-09-27T04:00:28.852Z,98697.94
2022-09-27T04:02:55.532Z,98693.28
2022-09-27T04:05:22.312Z,98690.69
2022-09-27T04:07:49.654Z,98690.69
2022-09-27T04:10:16.848Z,98692.72
2022-09-27T04:12:44.428Z,98694.28
2022-09-27T04:15:11.671Z,98695.53
2022-09-27T04:17:40.908Z,98692.16
2022-09-27T04:20:07.826Z,98697.53
2022-09-27T04:22:34.500Z,98690.72
2022-09-27T04:25:01.125Z,98684.34
2022-09-27T04:27:27.780Z,98690.31
2022-09-27T04:29:54.399Z,98687.53
2022-09-27T04:32:21.010Z,98679.38
2022-09-27T04:35:06.253Z,98682.56
2022-09-27T04:37:33.137Z,98692.91
2022-09-27T04:39:59.800Z,98686.31
2022-09-27T04:42:28.665Z,98680.78
2022-09-27T04:44:55.541Z,98676.69
2022-09-27T04:47:22.191Z,98674.53
2022-09-27T04:49:49.667Z,98673.66
2022-09-27T04:52:16.327Z,98674.44
2022-09-27T04:54:42.985Z,98677.94
2022-09-27T04:57:09.650Z,98678.03
2022-09-27T04:59:36.311Z,98675.06
2022-09-27T05:02:03.117Z,98670.50
2022-09-27T05:04:30.216Z,98680.13
2022-09-27T05:06:57.414Z,98675.22
2022-09-27T05:09:24.165Z,98680.41
2022-09-27T05:11:50.812Z,98674.91
2022-09-27T05:14:17.499Z,98672.56
2022-09-27T05:16:44.717Z,98685.53
2022-09-27T05:19:11.520Z,98680.13
2022-09-27T05:21:38.198Z,98670.69
2022-09-27T05:24:04.900Z,98677.28
2022-09-27T05:26:31.517Z,98680.19
2022-09-27T05:28:58.123Z,98675.22
2022-09-27T05:31:26.529Z,98670.88
2022-09-27T05:33:53.238Z,98674.91
2022-09-27T05:36:20.821Z,98673.25
2022-09-27T05:38:47.644Z,98679.16
2022-09-27T05:41:14.352Z,98677.78
2022-09-27T05:43:41.354Z,98670.09
2022-09-27T05:46:08.085Z,98680.56
2022-09-27T05:48:34.795Z,98675.38
2022-09-27T05:51:01.437Z,98678.78
2022-09-27T05:53:28.061Z,98677.16
2022-09-27T05:55:54.771Z,98671.88
2022-09-27T05:58:21.381Z,98675.72
2022-09-27T06:00:48.036Z,98668.34
2022-09-27T06:03:14.633Z,98674.31
2022-09-27T06:05:41.356Z,98675.16
2022-09-27T06:08:10.689Z,98672.44
2022-09-27T06:10:38.682Z,98670.72
2022-09-27T06:13:12.200Z,98677.88
2022-09-27T06:15:40.428Z,98681.50
2022-09-27T06:18:10.398Z,98683.53
2022-09-27T06:20:38.223Z,98683.63
2022-09-27T06:23:10.150Z,98678.06
2022-09-27T06:25:37.408Z,98673.19
2022-09-27T06:28:04.455Z,98682.75
2022-09-27T06:30:31.684Z,98678.06
2022-09-27T06:33:03.083Z,98677.06
2022-09-27T06:35:31.177Z,98676.66
2022-09-27T06:37:57.871Z,98687.06
2022-09-27T06:40:26.297Z,98681.50
2022-09-27T06:42:53.973Z,98678.94
2022-09-27T06:45:20.831Z,98681.78
2022-09-27T06:47:47.426Z,98681.38
2022-09-27T06:50:14.494Z,98678.84
2022-09-27T06:52:47.934Z,98681.72
2022-09-27T06:55:15.254Z,98682.75
2022-09-27T06:58:00.601Z,98686.94
2022-09-27T07:00:27.692Z,98679.66
2022-09-27T07:02:58.489Z,98683.09
2022-09-27T07:05:25.908Z,98679.00
2022-09-27T07:07:56.003Z,98682.69
2022-09-27T07:10:22.724Z,98677.03
2022-09-27T07:12:49.363Z,98689.06
2022-09-27T07:15:16.058Z,98687.34
2022-09-27T07:17:42.740Z,98685.47
2022-09-27T07:20:09.425Z,98686.50
2022-09-27T07:22:45.927Z,98684.19
2022-09-27T07:25:12.676Z,98690.16
2022-09-27T07:27:42.083Z,98681.16
2022-09-27T07:30:09.937Z,98690.78
2022-09-27T07:32:36.958Z,98683.06
2022-09-27T07:35:08.189Z,98685.69
2022-09-27T07:37:36.334Z,98680.78
2022-09-27T07:40:07.280Z,98686.94
2022-09-27T07:42:34.017Z,98690.16
2022-09-27T07:45:00.647Z,98689.06
2022-09-27T07:47:27.585Z,98689.38
2022-09-27T07:49:54.529Z,98691.53
2022-09-27T07:52:21.184Z,98685.69
2022-09-27T07:54:48.173Z,98681.44
2022-09-27T07:57:15.514Z,98690.59
2022-09-27T07:59:42.320Z,98682.56
2022-09-27T08:02:15.157Z,98688.44
2022-09-27T08:04:43.648Z,98686.34
2022-09-27T08:07:14.267Z,98691.72
2022-09-27T08:09:41.302Z,98682.41
2022-09-27T08:12:08.375Z,98688.75
2022-09-27T08:14:50.025Z,98685.81
2022-09-27T08:17:17.417Z,98688.88
2022-09-27T08:19:45.290Z,98680.00
2022-09-27T08:22:16.195Z,98685.56
2022-09-27T08:24:43.056Z,98691.50
2022-09-27T08:27:11.919Z,98689.03
2022-09-27T08:29:41.948Z,98696.78
2022-09-27T08:32:09.675Z,98684.03
2022-09-27T08:34:36.907Z,98687.03
2022-09-27T08:37:03.670Z,98688.75
2022-09-27T08:39:31.136Z,98688.19
2022-09-27T08:42:28.390Z,98688.72
2022-09-27T08:45:09.041Z,98693.47
2022-09-27T08:47:41.175Z,98690.97
2022-09-27T08:50:30.841Z,98691.94
2022-09-27T08:53:01.088Z,98687.94
2022-09-27T08:55:37.279Z,98689.38
2022-09-27T08:58:12.362Z,98692.97
2022-09-27T09:00:39.374Z,98685.13
2022-09-27T09:03:06.031Z,98687.84
2022-09-27T09:05:38.219Z,98687.84
2022-09-27T09:08:19.891Z,98693.66
2022-09-27T09:11:27.255Z,98686.94
2022-09-27T09:14:13.338Z,98683.69
2022-09-27T09:16:52.600Z,98685.16
2022-09-27T09:19:35.780Z,98686.50
2022-09-27T09:22:06.101Z,98691.97
2022-09-27T09:24:54.499Z,98691.53
2022-09-27T09:27:34.243Z,98693.56
2022-09-27T09:30:20.875Z,98690.53
2022-09-27T09:33:01.238Z,98700.06
2022-09-27T09:35:34.394Z,98697.63
2022-09-27T09:38:06.142Z,98694.03
2022-09-27T09:40:48.659Z,98698.63
2022-09-27T09:43:21.883Z,98692.63
2022-09-27T09:45:51.942Z,98699.66
2022-09-27T09:48:32.906Z,98691.63
2022-09-27T09:51:01.407Z,98688.34
2022-09-27T09:53:34.017Z,98691.53
2022-09-27T09:56:07.501Z,98686.09
2022-09-27T09:58:45.012Z,98687.00
2022-09-27T10:01:21.143Z,98684.78
2022-09-27T10:03:48.060Z,98684.28
2022-09-27T10:06:16.169Z,98686.84
2022-09-27T10:08:43.008Z,98690.75
2022-09-27T10:11:23.134Z,98687.78
2022-09-27T10:13:49.856Z,98689.16
2022-09-27T10:16:18.697Z,98687.25
2022-09-27T10:18:49.817Z,98689.47
2022-09-27T10:21:22.942Z,98697.81
2022-09-27T10:24:04.655Z,98686.81
2022-09-27T10:26:32.328Z,98687.59
2022-09-27T10:29:24.835Z,98684.91
2022-09-27T10:31:52.159Z,98676.66
2022-09-27T10:34:31.453Z,98677.16
2022-09-27T10:37:10.305Z,98681.06
2022-09-27T10:39:37.639Z,98681.34
2022-09-27T10:42:34.816Z,98677.25
2022-09-27T10:45:29.774Z,98669.69
2022-09-27T10:47:57.707Z,98666.38
2022-09-27T10:50:49.061Z,98664.47
2022-09-27T10:53:15.926Z,98664.56
2022-09-27T10:55:43.421Z,98666.91
2022-09-27T10:58:19.044Z,98663.41
2022-09-27T11:00:58.442Z,98663.72
2022-09-27T11:03:26.521Z,98662.97
2022-09-27T11:05:54.768Z,98664.66
2022-09-27T11:08:30.589Z,98670.44
2022-09-27T11:11:27.140Z,98674.31
2022-09-27T11:14:03.101Z,98666.19
2022-09-27T11:16:41.766Z,98663.03
2022-09-27T11:19:34.824Z,98668.72
2022-09-27T11:22:24.542Z,98672.78
2022-09-27T11:25:19.371Z,98669.38
2022-09-27T11:27:59.112Z,98674.00
2022-09-27T11:30:33.650Z,98662.75
2022-09-27T11:33:12.217Z,98664.25
2022-09-27T11:35:53.235Z,98658.41
2022-09-27T11:38:48.402Z,98656.66
2022-09-27T11:41:30.129Z,98652.78
2022-09-27T11:44:09.623Z,98654.19
2022-09-27T11:46:41.554Z,98654.06
2022-09-27T11:49:46.402Z,98655.63
2022-09-27T11:52:20.134Z,98653.63
2022-09-27T11:54:56.649Z,98651.97
2022-09-27T11:57:31.632Z,98651.66
2022-09-27T12:00:06.899Z,98644.25
2022-09-27T12:02:54.664Z,98644.63
2022-09-27T12:05:25.723Z,98643.28
2022-09-27T12:08:11.082Z,98638.97
2022-09-27T12:10:40.449Z,98635.41
2022-09-27T12:13:12.128Z,98632.63
2022-09-27T12:15:42.199Z,98634.66
2022-09-27T12:18:25.069Z,98645.19
2022-09-27T12:20:52.227Z,98630.63
2022-09-27T12:23:45.320Z,98635.69
2022-09-27T12:26:25.561Z,98629.84
2022-09-27T12:29:02.997Z,98625.31
2022-09-27T12:31:56.138Z,98642.38
2022-09-27T12:34:28.179Z,98643.16
2022-09-27T12:37:05.807Z,98661.53
2022-09-27T12:40:00.551Z,98678.00
2022-09-27T12:42:35.058Z,98670.53
2022-09-27T12:45:01.941Z,98673.63
2022-09-27T12:47:37.027Z,98669.84
2022-09-27T12:50:40.929Z,98677.78
2022-09-27T12:53:22.839Z,98679.09
2022-09-27T12:56:03.031Z,98689.06
2022-09-27T12:58:33.253Z,98687.03
2022-09-27T13:01:14.104Z,98684.75
2022-09-27T13:03:51.441Z,98684.78
2022-09-27T13:06:50.032Z,98685.16
2022-09-27T13:09:40.615Z,98697.16
2022-09-27T13:12:13.322Z,98699.66
2022-09-27T13:14:54.677Z,98706.38
2022-09-27T13:17:40.830Z,98706.47
2022-09-27T13:20:35.520Z,98712.53
2022-09-27T13:23:05.743Z,98715.09
2022-09-27T13:25:55.966Z,98710.31
2022-09-27T13:28:32.158Z,98718.06
2022-09-27T13:30:59.672Z,98724.09
2022-09-27T13:33:50.391Z,98713.47
2022-09-27T13:36:17.007Z,98722.69
2022-09-27T13:39:01.842Z,98712.38
2022-09-27T13:41:45.175Z,98713.63
2022-09-27T13:44:17.868Z,98712.25
2022-09-27T13:46:55.512Z,98711.91
2022-09-27T13:49:31.249Z,98711.38
2022-09-27T13:52:05.378Z,98709.66
2022-09-27T13:54:36.110Z,98712.81
2022-09-27T13:57:02.780Z,98712.41
2022-09-27T13:59:52.785Z,98709.66
2022-09-27T14:02:23.821Z,98706.16
2022-09-27T14:04:51.514Z,98708.53
2022-09-27T14:07:22.501Z,98719.03
2022-09-27T14:09:52.864Z,98704.50
2022-09-27T14:12:22.440Z,98708.03
2022-09-27T14:14:50.781Z,98712.75
2022-09-27T14:17:17.421Z,98712.88
2022-09-27T14:19:44.727Z,98715.13
2022-09-27T14:22:16.450Z,98724.50
2022-09-27T14:24:42.954Z,98722.47
2022-09-27T14:27:27.128Z,98731.25
2022-09-27T14:30:17.822Z,98726.91
2022-09-27T14:32:55.691Z,98723.88
2022-09-27T14:35:43.459Z,98724.97
2022-09-27T14:38:36.533Z,98726.09
2022-09-27T14:41:07.481Z,98729.41
2022-09-27T14:43:35.740Z,98725.97
2022-09-27T14:46:07.777Z,98728.38
2022-09-27T14:48:36.422Z,98732.47
2022-09-27T14:51:06.843Z,98726.47
2022-09-27T14:53:41.161Z,98739.72
2022-09-27T14:56:13.593Z,98738.06
2022-09-27T14:58:47.584Z,98733.94
2022-09-27T15:01:20.291Z,98736.16
2022-09-27T15:03:49.141Z,98743.91
2022-09-27T15:06:20.133Z,98746.88
2022-09-27T15:08:49.591Z,98747.25
2022-09-27T15:11:18.030Z,98747.69
2022-09-27T15:13:45.999Z,98755.88
2022-09-27T15:16:18.871Z,98752.06
2022-09-27T15:18:50.814Z,98740.06
2022-09-27T15:21:33.595Z,98754.56
2022-09-27T15:24:01.910Z,98751.41
2022-09-27T15:26:42.141Z,98758.41
2022-09-27T15:29:23.840Z,98764.97
2022-09-27T15:32:04.982Z,98764.31
2022-09-27T15:34:34.308Z,98771.56
2022-09-27T15:37:06.400Z,98776.38
2022-09-27T15:39:32.967Z,98772.53
2022-09-27T15:42:05.828Z,98776.28
2022-09-27T15:44:44.668Z,98781.78
2022-09-27T15:47:38.652Z,98778.69
2022-09-27T15:50:17.490Z,98782.63
2022-09-27T15:52:47.431Z,98786.78
2022-09-27T15:55:14.950Z,98789.09
2022-09-27T15:57:41.999Z,98795.53
2022-09-27T16:00:13.697Z,98790.38
2022-09-27T16:02:40.326Z,98799.69
2022-09-27T16:05:07.141Z,98795.91
2022-09-27T16:07:33.771Z,98795.75
2022-09-27T16:10:00.442Z,98798.13
2022-09-27T16:12:30.148Z,98789.66
2022-09-27T16:14:56.923Z,98801.00
2022-09-27T16:17:23.634Z,98803.41
2022-09-27T16:19:50.593Z,98803.81
2022-09-27T16:22:17.250Z,98806.78
2022-09-27T16:24:43.920Z,98810.97
2022-09-27T16:27:10.604Z,98809.56
2022-09-27T16:29:39.267Z,98816.47
2022-09-27T16:32:09.590Z,98821.13
2022-09-27T16:34:36.284Z,98820.94
2022-09-27T16:37:05.129Z,98824.31
2022-09-27T16:39:31.900Z,98818.66
2022-09-27T16:41:59.875Z,98813.47
2022-09-27T16:44:26.503Z,98819.63
2022-09-27T16:46:53.238Z,98821.97
2022-09-27T16:49:38.656Z,98828.59
2022-09-27T16:52:07.857Z,98826.00
2022-09-27T16:54:35.014Z,98835.44
2022-09-27T16:57:01.878Z,98832.16
2022-09-27T16:59:28.566Z,98832.50
2022-09-27T17:01:58.524Z,98839.09
2022-09-27T17:04:26.182Z,98842.50
2022-09-27T17:06:52.834Z,98835.63
2022-09-27T17:09:20.664Z,98841.16
2022-09-27T17:11:47.407Z,98846.66
2022-09-27T17:14:17.271Z,98838.22
2022-09-27T17:16:44.619Z,98833.91
2022-09-27T17:19:16.848Z,98834.19
2022-09-27T17:21:44.885Z,98833.91
2022-09-27T17:24:11.824Z,98833.44
2022-09-27T17:26:38.572Z,98839.34
2022-09-27T17:29:05.173Z,98842.97
2022-09-27T17:31:34.843Z,98852.91
2022-09-27T17:34:02.840Z,98853.03
2022-09-27T17:36:33.604Z,98847.22
2022-09-27T17:39:00.732Z,98844.59
2022-09-27T17:41:28.782Z,98845.28
2022-09-27T17:44:00.469Z,98844.34
2022-09-27T17:46:29.375Z,98853.34
2022-09-27T17:49:14.975Z,98847.25
2022-09-27T17:51:42.407Z,98849.84
2022-09-27T17:54:10.471Z,98856.97
2022-09-27T17:56:41.109Z,98858.66
2022-09-27T17:59:08.725Z,98862.81
2022-09-27T18:01:38.282Z,98868.00
2022-09-27T18:04:08.832Z,98873.50
2022-09-27T18:06:40.155Z,98862.69
2022-09-27T18:09:08.866Z,98869.25
2022-09-27T18:11:36.171Z,98869.25
2022-09-27T18:14:03.767Z,98874.66
2022-09-27T18:16:35.023Z,98870.16
2022-09-27T18:19:03.769Z,98869.59
2022-09-27T18:21:31.542Z,98880.44
2022-09-27T18:24:00.127Z,98875.16
2022-09-27T18:26:29.078Z,98873.53
2022-09-27T18:29:01.020Z,98875.59
2022-09-27T18:31:27.812Z,98879.22
2022-09-27T18:33:54.426Z,98875.78
2022-09-27T18:36:23.562Z,98881.06
2022-09-27T18:39:15.719Z,98880.72
2022-09-27T18:41:42.561Z,98892.47
2022-09-27T18:44:14.127Z,98897.81
2022-09-27T18:46:41.067Z,98897.38
2022-09-27T18:49:10.822Z,98900.53
2022-09-27T18:51:41.162Z,98894.91
2022-09-27T18:54:19.724Z,98904.81
2022-09-27T18:56:47.681Z,98909.53
2022-09-27T18:59:15.000Z,98912.94
2022-09-27T19:01:45.168Z,98908.34
2022-09-27T19:04:14.242Z,98903.00
2022-09-27T19:06:41.870Z,98904.28
2022-09-27T19:09:08.901Z,98902.38
2022-09-27T19:11:35.611Z,98910.53
2022-09-27T19:14:02.291Z,98920.03
2022-09-27T19:16:29.624Z,98918.31
2022-09-27T19:18:56.490Z,98917.00
2022-09-27T19:21:25.732Z,98923.34
2022-09-27T19:23:52.710Z,98916.16
2022-09-27T19:26:21.280Z,98910.88
2022-09-27T19:28:48.680Z,98915.59
2022-09-27T19:31:17.963Z,98920.09
2022-09-27T19:33:44.655Z,98924.75
2022-09-27T19:36:15.813Z,98919.03
2022-09-27T19:38:42.967Z,98917.44
2022-09-27T19:41:11.185Z,98930.25
2022-09-27T19:43:38.146Z,98917.41
2022-09-27T19:46:24.481Z,98920.66
2022-09-27T19:48:51.770Z,98919.97
2022-09-27T19:51:22.010Z,98925.41
2022-09-27T19:53:49.543Z,98924.66
2022-09-27T19:56:16.163Z,98928.38
2022-09-27T19:58:43.132Z,98926.59
2022-09-27T20:01:20.892Z,98930.84
2022-09-27T20:03:48.928Z,98928.97
2022-09-27T20:06:17.467Z,98922.16
2022-09-27T20:08:44.116Z,98921.38
2022-09-27T20:11:12.727Z,98928.44
2022-09-27T20:13:40.379Z,98930.25
2022-09-27T20:16:09.192Z,98923.50
2022-09-27T20:18:49.157Z,98923.28
2022-09-27T20:21:17.189Z,98928.38
2022-09-27T20:23:44.298Z,98924.09
2022-09-27T20:26:15.633Z,98928.53
2022-09-27T20:28:47.977Z,98925.19
2022-09-27T20:31:17.254Z,98928.69
2022-09-27T20:33:46.329Z,98934.22
2022-09-27T20:36:24.806Z,98931.59
2022-09-27T20:39:02.000Z,98927.63
2022-09-27T20:41:31.298Z,98927.50
2022-09-27T20:44:00.352Z,98929.47
2022-09-27T20:46:27.518Z,98927.63
2022-09-27T20:48:59.079Z,98935.06
2022-09-27T20:51:27.423Z,98935.88
2022-09-27T20:53:54.585Z,98930.72
2022-09-27T20:56:29.904Z,98931.47
2022-09-27T20:58:58.372Z,98933.34
2022-09-27T21:01:26.007Z,98936.00
2022-09-27T21:04:00.943Z,98934.22
2022-09-27T21:06:28.030Z,98936.84
2022-09-27T21:08:57.723Z,98943.03
2022-09-27T21:11:25.031Z,98937.69
2022-09-27T21:13:52.383Z,98937.44
2022-09-27T21:16:21.759Z,98937.69
2022-09-27T21:18:50.803Z,98942.97
2022-09-27T21:21:17.997Z,98954.66
2022-09-27T21:23:46.032Z,98953.91
2022-09-27T21:26:17.855Z,98940.53
2022-09-27T21:28:52.598Z,98949.03
2022-09-27T21:31:23.003Z,98953.56
2022-09-27T21:33:54.086Z,98952.50
2022-09-27T21:36:23.089Z,98950.94
2022-09-27T21:38:53.017Z,98952.88
2022-09-27T21:41:19.982Z,98956.50
2022-09-27T21:43:47.872Z,98959.22
2022-09-27T21:46:18.032Z,98962.56
2022-09-27T21:48:47.278Z,98968.06
2022-09-27T21:51:19.409Z,98964.41
2022-09-27T21:53:57.159Z,98969.00
2022-09-27T21:56:25.823Z,98967.91
2022-09-27T21:58:52.562Z,98969.00
2022-09-27T22:01:24.153Z,98966.50
2022-09-27T22:03:51.975Z,98970.72
2022-09-27T22:06:29.346Z,98970.78
2022-09-27T22:08:57.287Z,98962.03
2022-09-27T22:11:25.997Z,98969.91
2022-09-27T22:13:52.925Z,98962.25
2022-09-27T22:16:20.713Z,98964.66
2022-09-27T22:18:49.639Z,98971.16
2022-09-27T22:21:18.519Z,98963.25
2022-09-27T22:23:45.702Z,98960.00
2022-09-27T22:26:19.579Z,98959.94
2022-09-27T22:28:50.089Z,98961.78
2022-09-27T22:31:18.946Z,98963.38
2022-09-27T22:33:57.537Z,98963.41
2022-09-27T22:36:27.247Z,98967.91
2022-09-27T22:38:54.555Z,98966.88
2022-09-27T22:41:21.228Z,98966.25
2022-09-27T22:43:48.062Z,98959.22
2022-09-27T22:46:14.859Z,98953.25
2022-09-27T22:48:42.270Z,98958.44
2022-09-27T22:51:09.257Z,98963.63
2022-09-27T22:53:38.857Z,98958.16
2022-09-27T22:56:19.615Z,98954.88
2022-09-27T22:58:47.670Z,98960.25
2022-09-27T23:01:16.875Z,98964.41
2022-09-27T23:03:44.040Z,98958.53
2022-09-27T23:06:10.758Z,98959.59
2022-09-27T23:08:38.752Z,98958.78
2022-09-27T23:11:07.982Z,98957.81
2022-09-27T23:13:37.688Z,98960.66
2022-09-27T23:16:06.246Z,98962.44
2022-09-27T23:18:33.495Z,98959.81
2022-09-27T23:21:07.037Z,98964.72
2022-09-27T23:23:38.063Z,98960.00
2022-09-27T23:26:07.390Z,98963.53
2022-09-27T23:28:34.273Z,98964.44
2022-09-27T23:31:09.343Z,98965.22
2022-09-27T23:33:36.987Z,98963.72
2022-09-27T23:36:04.422Z,98959.38
2022-09-27T23:38:31.864Z,98961.03
2022-09-27T23:40:59.358Z,98958.25
2022-09-27T23:43:26.400Z,98961.78
2022-09-27T23:45:55.130Z,98961.81
2022-09-27T23:48:21.921Z,98960.19
2022-09-27T23:50:48.634Z,98956.41
2022-09-27T23:53:15.340Z,98959.19
2022-09-27T23:55:41.935Z,98954.13
2022-09-27T23:58:08.554Z,98956.41
